Airfield :







YOU CAN JOIN US ON...

 
LOGIN :

Register | Disclaimer

   EN    FR    IT 

 









Legend :    VFR   Marginal VFR   IFR   Intensive IFR   Very Intensive IFR
Visi :
Ceiling :
>= 8 km
>= 3000ft
5 to 8 km
1000 to 3000 ft
1500m to 5 km
500 to 1000 ft
800 to 1500m
200 to 500 ft
< 800m
< 200 ft
Symbols :   Thunderstorms  Fog  Heavy snow  Heavy precipitations  Wind > 20 kt






- Airport Elevation : 234 ft
- IATA code : PBG


KPBG - Plattsburgh International

CURRENT METAR :
  • 170153Z AUTO VRB04KT 10SM CLR 02/M04 A2999 RMK AO2 SLP157 T00221044

EXPIRED METARs :
  • 170053Z AUTO VRB04KT 10SM BKN048 OVC055 03/M04 A2999 RMK AO2 SLP158 T00281039

TAF KPBG
Valid from the 17 at 00:00 until the 18 at 00:00 UTC


162334Z 1700/1724 VRB03KT P6SM OVC040
FM170800 29006KT P6SM BKN035
FM171600 33006KT P6SM SCT035



MET'MAP, your aeronautical weather chart ! - Copyright ORBIFLY December 2007 - Disclaimer

ORBIFLY MET'MAP TEAM :

Programming & Development : Alexandra Zaïnal
Concept & original design : Baudouin d'Aumeries
Assistance for programming : Marc-Olivier Méhu
Technical & hardware support : Manuel Goepfert

Contact : metmap@orbifly.com




SOURCES & CREDITS :

   NOAA